createdAt,value
2022-10-14T00:00:34.025Z,26.42
2022-10-14T00:05:55.871Z,29.70
2022-10-14T00:11:21.045Z,26.38
2022-10-14T00:16:44.655Z,24.83
2022-10-14T00:22:06.565Z,24.70
2022-10-14T00:27:28.370Z,27.38
2022-10-14T00:32:50.252Z,24.23
2022-10-14T00:38:12.096Z,25.20
2022-10-14T00:44:15.305Z,26.20
2022-10-14T00:49:40.797Z,25.75
2022-10-14T00:55:07.913Z,27.05
2022-10-14T01:00:29.745Z,23.85
2022-10-14T01:06:23.184Z,21.88
2022-10-14T01:12:23.521Z,26.75
2022-10-14T01:18:01.216Z,26.50
2022-10-14T01:24:00.929Z,25.52
2022-10-14T01:30:02.223Z,25.38
2022-10-14T01:35:27.130Z,30.67
2022-10-14T01:41:07.679Z,23.70
2022-10-14T01:46:30.520Z,24.23
2022-10-14T01:51:59.392Z,25.40
2022-10-14T01:57:25.932Z,24.70
2022-10-14T02:02:47.785Z,32.95
2022-10-14T02:08:54.446Z,24.70
2022-10-14T02:14:33.949Z,27.23
2022-10-14T02:20:16.161Z,26.23
2022-10-14T02:25:41.424Z,27.15
2022-10-14T02:31:10.431Z,26.02
2022-10-14T02:36:33.977Z,27.33
2022-10-14T02:41:56.121Z,26.67
2022-10-14T02:47:17.925Z,25.25
2022-10-14T02:52:39.736Z,26.95
2022-10-14T02:58:01.567Z,26.25
2022-10-14T03:03:23.380Z,27.30
2022-10-14T03:08:45.183Z,28.80
2022-10-14T03:14:06.999Z,30.67
2022-10-14T03:19:28.792Z,30.75
2022-10-14T03:24:50.620Z,33.13
2022-10-14T03:30:12.767Z,25.98
2022-10-14T03:35:34.721Z,29.38
2022-10-14T03:40:56.575Z,31.00
2022-10-14T03:46:18.457Z,29.45
2022-10-14T03:51:40.282Z,25.67
2022-10-14T03:57:02.126Z,29.15
2022-10-14T04:02:24.286Z,32.78
2022-10-14T04:07:46.436Z,32.72
2022-10-14T04:13:08.226Z,29.30
2022-10-14T04:18:30.036Z,28.27
2022-10-14T04:23:51.849Z,35.83
2022-10-14T04:29:13.640Z,34.03
2022-10-14T04:34:35.538Z,31.92
2022-10-14T04:39:57.440Z,32.65
2022-10-14T04:45:19.243Z,33.30
2022-10-14T04:50:41.284Z,32.50
2022-10-14T04:56:03.109Z,32.30
2022-10-14T05:01:25.112Z,31.55
2022-10-14T05:06:46.957Z,32.22
2022-10-14T05:12:08.808Z,28.25
2022-10-14T05:17:30.889Z,33.15
2022-10-14T05:22:52.715Z,34.80
2022-10-14T05:28:14.703Z,33.47
2022-10-14T05:33:36.566Z,28.83
2022-10-14T05:38:58.360Z,32.55
2022-10-14T05:44:20.164Z,31.95
2022-10-14T05:49:42.112Z,31.42
2022-10-14T05:55:04.368Z,35.88
2022-10-14T06:00:26.546Z,32.63
2022-10-14T06:05:48.525Z,33.15
2022-10-14T06:11:11.072Z,33.33
2022-10-14T06:16:33.184Z,39.92
2022-10-14T06:21:55.168Z,29.75
2022-10-14T06:27:17.070Z,33.63
2022-10-14T06:32:38.970Z,29.27
2022-10-14T06:38:02.035Z,31.30
2022-10-14T06:43:23.851Z,42.33
2022-10-14T06:48:50.034Z,34.78
2022-10-14T06:54:12.229Z,35.03
2022-10-14T06:59:34.183Z,29.17
2022-10-14T07:04:56.014Z,34.40
2022-10-14T07:10:17.856Z,34.80
2022-10-14T07:15:40.079Z,31.92
2022-10-14T07:21:05.626Z,36.53
2022-10-14T07:26:29.633Z,30.67
2022-10-14T07:31:51.494Z,33.25
2022-10-14T07:37:13.305Z,28.05
2022-10-14T07:42:35.128Z,34.58
2022-10-14T07:47:56.928Z,27.13
2022-10-14T07:53:18.893Z,29.55
2022-10-14T07:58:44.318Z,30.10
2022-10-14T08:04:06.852Z,29.65
2022-10-14T08:09:28.699Z,24.48
2022-10-14T08:14:50.552Z,27.63
2022-10-14T08:20:12.536Z,25.95
2022-10-14T08:25:36.465Z,25.50
2022-10-14T08:30:58.336Z,22.90
2022-10-14T08:36:21.457Z,23.67
2022-10-14T08:41:46.181Z,23.55
2022-10-14T08:47:14.161Z,23.25
2022-10-14T08:52:46.969Z,23.63
2022-10-14T08:58:34.604Z,27.40
2022-10-14T09:04:04.663Z,19.30
2022-10-14T09:09:56.318Z,20.48
2022-10-14T09:15:30.756Z,18.58
2022-10-14T09:20:53.820Z,19.08
2022-10-14T09:26:19.874Z,17.80
2022-10-14T09:31:41.792Z,19.52
2022-10-14T09:37:20.550Z,20.10
2022-10-14T09:43:03.131Z,18.67
2022-10-14T09:48:27.565Z,19.17
2022-10-14T09:53:52.325Z,20.55
2022-10-14T09:59:19.064Z,22.17
2022-10-14T10:04:43.626Z,22.48
2022-10-14T10:10:21.148Z,21.15
2022-10-14T10:15:57.318Z,21.90
2022-10-14T10:21:24.268Z,22.02
2022-10-14T10:26:46.104Z,29.75
2022-10-14T10:32:14.301Z,18.50
2022-10-14T10:38:06.960Z,20.02
2022-10-14T10:43:40.867Z,22.25
2022-10-14T10:49:20.576Z,19.88
2022-10-14T10:54:58.179Z,19.08
2022-10-14T11:00:21.468Z,21.95
2022-10-14T11:05:50.987Z,20.42
2022-10-14T11:11:32.134Z,19.13
2022-10-14T11:16:59.625Z,22.40
2022-10-14T11:22:58.484Z,19.63
2022-10-14T11:28:33.971Z,21.75
2022-10-14T11:34:19.979Z,20.38
2022-10-14T11:39:59.768Z,20.88
2022-10-14T11:45:42.372Z,19.20
2022-10-14T11:51:41.662Z,22.75
2022-10-14T11:57:15.545Z,19.40
2022-10-14T12:02:42.954Z,21.83
2022-10-14T12:08:13.432Z,22.27
2022-10-14T12:13:42.101Z,20.17
2022-10-14T12:19:10.023Z,20.02
2022-10-14T12:24:38.012Z,31.15
2022-10-14T12:29:59.888Z,23.45
2022-10-14T12:35:50.863Z,23.23
2022-10-14T12:41:37.730Z,22.48
2022-10-14T12:46:59.846Z,23.75
2022-10-14T12:52:32.053Z,20.15
2022-10-14T12:58:02.932Z,21.58
2022-10-14T13:03:30.614Z,23.63
2022-10-14T13:09:11.310Z,23.65
2022-10-14T13:15:00.043Z,25.92
2022-10-14T13:20:34.116Z,22.15
2022-10-14T13:26:23.130Z,26.45
2022-10-14T13:31:57.142Z,21.70
2022-10-14T13:37:29.512Z,22.80
2022-10-14T13:42:55.047Z,22.90
2022-10-14T13:48:28.489Z,23.17
2022-10-14T13:53:57.402Z,23.27
2022-10-14T13:59:39.944Z,21.58
2022-10-14T14:05:04.339Z,22.70
2022-10-14T14:10:26.501Z,37.20
2022-10-14T14:15:54.685Z,19.55
2022-10-14T14:21:16.540Z,22.73
2022-10-14T14:26:39.435Z,19.35
2022-10-14T14:32:08.110Z,23.08
2022-10-14T14:37:53.401Z,19.85
2022-10-14T14:43:15.869Z,19.42
2022-10-14T14:48:42.118Z,21.33
2022-10-14T14:54:04.948Z,22.92
2022-10-14T14:59:35.419Z,17.85
2022-10-14T15:05:11.859Z,22.70
2022-10-14T15:15:56.045Z,24.10
2022-10-14T15:21:18.958Z,21.05
2022-10-14T15:26:40.976Z,23.42
2022-10-14T15:32:13.607Z,24.58
2022-10-14T15:37:35.463Z,22.33
2022-10-14T15:42:58.057Z,22.85
2022-10-14T15:48:20.095Z,23.33
2022-10-14T15:53:41.921Z,23.63
2022-10-14T15:59:03.699Z,24.55
2022-10-14T16:04:26.211Z,26.33
2022-10-14T16:09:48.053Z,26.52
2022-10-14T16:15:27.210Z,24.23
2022-10-14T16:20:49.173Z,25.02
2022-10-14T16:26:11.073Z,28.70
2022-10-14T16:31:32.999Z,28.67
2022-10-14T16:36:54.887Z,30.00
2022-10-14T16:53:06.058Z,28.92
2022-10-14T16:58:28.049Z,27.85
2022-10-14T17:03:50.131Z,28.08
2022-10-14T17:09:12.086Z,26.90
2022-10-14T17:14:33.988Z,30.75
2022-10-14T17:19:55.877Z,31.70
2022-10-14T17:25:17.909Z,31.50
2022-10-14T17:30:39.817Z,28.42
2022-10-14T17:36:02.199Z,28.73
2022-10-14T17:41:26.353Z,29.40
2022-10-14T17:46:48.209Z,30.55
2022-10-14T17:52:10.102Z,30.83
2022-10-14T17:57:32.090Z,31.13
2022-10-14T18:02:53.957Z,33.75
2022-10-14T18:08:15.926Z,33.00
2022-10-14T18:13:37.967Z,34.47
2022-10-14T18:19:02.426Z,33.28
2022-10-14T18:24:24.310Z,33.05
2022-10-14T18:29:46.142Z,30.65
2022-10-14T18:35:08.444Z,34.00
2022-10-14T18:40:30.356Z,33.13
2022-10-14T18:45:52.276Z,34.85
2022-10-14T18:51:16.123Z,36.55
2022-10-14T18:56:38.413Z,37.47
2022-10-14T19:02:00.236Z,37.08
2022-10-14T19:07:22.059Z,37.60
2022-10-14T19:12:43.914Z,38.20
2022-10-14T19:18:05.697Z,38.72
2022-10-14T19:23:27.510Z,35.13
2022-10-14T19:28:50.537Z,39.33
2022-10-14T19:34:15.387Z,43.22
2022-10-14T19:39:37.303Z,38.08
2022-10-14T19:44:59.169Z,37.78
2022-10-14T19:50:20.967Z,38.35
2022-10-14T19:55:43.094Z,39.08
2022-10-14T20:01:09.439Z,38.88
2022-10-14T20:06:32.868Z,38.72
2022-10-14T20:11:54.688Z,40.67
2022-10-14T20:17:16.540Z,38.10
2022-10-14T20:22:38.434Z,38.75
2022-10-14T20:28:00.774Z,41.47
2022-10-14T20:33:22.938Z,45.47
2022-10-14T20:38:45.181Z,41.55
2022-10-14T20:44:07.021Z,44.03
2022-10-14T20:49:28.840Z,45.17
2022-10-14T20:54:50.672Z,42.80
2022-10-14T21:00:13.102Z,43.85
2022-10-14T21:05:38.469Z,43.28
2022-10-14T21:11:02.002Z,43.88
2022-10-14T21:16:26.799Z,44.47
2022-10-14T21:21:48.946Z,43.03
2022-10-14T21:27:10.778Z,46.65
2022-10-14T21:32:32.586Z,46.63
2022-10-14T21:37:54.404Z,44.78
2022-10-14T21:43:16.262Z,48.53
2022-10-14T21:48:39.046Z,50.55
2022-10-14T21:54:01.037Z,49.88
2022-10-14T21:59:22.889Z,49.55
2022-10-14T22:04:44.717Z,45.28
2022-10-14T22:10:06.828Z,51.58
2022-10-14T22:15:28.734Z,44.38
2022-10-14T22:20:58.658Z,48.67
2022-10-14T22:26:22.998Z,48.42
2022-10-14T22:31:46.049Z,49.65
2022-10-14T22:37:08.033Z,51.30
2022-10-14T22:53:18.581Z,50.75
2022-10-14T22:58:40.548Z,57.15
2022-10-14T23:04:02.971Z,52.08
2022-10-14T23:09:25.210Z,56.30
2022-10-14T23:14:47.069Z,52.65
2022-10-14T23:20:09.896Z,57.00
2022-10-14T23:25:31.713Z,57.97
2022-10-14T23:30:53.505Z,58.85
2022-10-14T23:36:15.770Z,59.30
2022-10-14T23:41:37.761Z,54.10
2022-10-14T23:46:59.597Z,52.53
2022-10-14T23:52:21.443Z,60.10
2022-10-14T23:57:43.359Z,57.67
